sensor_id;sensor_type;location;lat;lon;timestamp;P1;P2;P0
79537;PMS5003;68989;52.032;5.152;2024-03-23T00:55:10;22;20;
79537;PMS5003;68989;52.032;5.152;2024-03-23T00:57:38;22;22;
79537;PMS5003;68989;52.032;5.152;2024-03-23T01:00:05;24;22;
79537;PMS5003;68989;52.032;5.152;2024-03-23T01:02:33;20;18;
79537;PMS5003;68989;52.032;5.152;2024-03-23T01:04:59;22;22;
79537;PMS5003;68989;52.032;5.152;2024-03-23T01:07:26;26;26;
79537;PMS5003;68989;52.032;5.152;2024-03-23T01:09:53;21;19;
79537;PMS5003;68989;52.032;5.152;2024-03-23T01:12:19;21;17;
79537;PMS5003;68989;52.032;5.152;2024-03-23T01:14:47;19;17;
79537;PMS5003;68989;52.032;5.152;2024-03-23T01:17:13;25;21;
79537;PMS5003;68989;52.032;5.152;2024-03-23T01:19:41;20;18;
79537;PMS5003;68989;52.032;5.152;2024-03-23T01:22:08;21;20;
79537;PMS5003;68989;52.032;5.152;2024-03-23T01:24:35;19;17;
79537;PMS5003;68989;52.032;5.152;2024-03-23T01:27:02;18;18;
79537;PMS5003;68989;52.032;5.152;2024-03-23T01:29:30;21;19;
79537;PMS5003;68989;52.032;5.152;2024-03-23T01:31:57;20;18;
79537;PMS5003;68989;52.032;5.152;2024-03-23T01:34:24;19;19;
79537;PMS5003;68989;52.032;5.152;2024-03-23T01:36:52;26;19;
79537;PMS5003;68989;52.032;5.152;2024-03-23T01:39:18;16;16;
79537;PMS5003;68989;52.032;5.152;2024-03-23T01:41:45;17;17;
79537;PMS5003;68989;52.032;5.152;2024-03-23T01:44:12;22;19;
79537;PMS5003;68989;52.032;5.152;2024-03-23T01:46:40;19;18;
79537;PMS5003;68989;52.032;5.152;2024-03-23T01:49:06;22;20;
79537;PMS5003;68989;52.032;5.152;2024-03-23T01:51:35;21;19;
79537;PMS5003;68989;52.032;5.152;2024-03-23T01:54:04;16;16;
79537;PMS5003;68989;52.032;5.152;2024-03-23T01:56:32;22;18;
79537;PMS5003;68989;52.032;5.152;2024-03-23T01:59:00;15;15;
79537;PMS5003;68989;52.032;5.152;2024-03-23T02:01:38;16;14;
79537;PMS5003;68989;52.032;5.152;2024-03-23T02:04:05;20;20;
79537;PMS5003;68989;52.032;5.152;2024-03-23T02:06:32;18;17;
79537;PMS5003;68989;52.032;5.152;2024-03-23T02:09:00;20;17;
79537;PMS5003;68989;52.032;5.152;2024-03-23T02:11:28;15;15;
79537;PMS5003;68989;52.032;5.152;2024-03-23T02:13:55;19;18;
79537;PMS5003;68989;52.032;5.152;2024-03-23T02:16:22;17;15;
79537;PMS5003;68989;52.032;5.152;2024-03-23T02:18:49;13;13;
79537;PMS5003;68989;52.032;5.152;2024-03-23T02:21:17;21;16;
79537;PMS5003;68989;52.032;5.152;2024-03-23T02:23:44;19;13;
79537;PMS5003;68989;52.032;5.152;2024-03-23T02:26:11;20;15;
79537;PMS5003;68989;52.032;5.152;2024-03-23T02:28:39;15;12;
79537;PMS5003;68989;52.032;5.152;2024-03-23T02:31:05;15;15;
79537;PMS5003;68989;52.032;5.152;2024-03-23T02:33:33;16;15;
79537;PMS5003;68989;52.032;5.152;2024-03-23T02:35:59;13;12;
79537;PMS5003;68989;52.032;5.152;2024-03-23T02:38:26;14;14;
79537;PMS5003;68989;52.032;5.152;2024-03-23T02:40:53;13;13;
79537;PMS5003;68989;52.032;5.152;2024-03-23T02:43:21;12;11;
79537;PMS5003;68989;52.032;5.152;2024-03-23T02:45:47;13;12;
79537;PMS5003;68989;52.032;5.152;2024-03-23T02:48:15;19;13;
79537;PMS5003;68989;52.032;5.152;2024-03-23T02:50:42;11;10;
79537;PMS5003;68989;52.032;5.152;2024-03-23T02:53:09;12;11;
79537;PMS5003;68989;52.032;5.152;2024-03-23T02:55:35;14;11;
79537;PMS5003;68989;52.032;5.152;2024-03-23T02:58:02;13;10;
79537;PMS5003;68989;52.032;5.152;2024-03-23T03:00:29;9;9;
79537;PMS5003;68989;52.032;5.152;2024-03-23T03:02:55;13;11;
79537;PMS5003;68989;52.032;5.152;2024-03-23T03:05:22;12;11;
79537;PMS5003;68989;52.032;5.152;2024-03-23T03:07:49;11;10;
79537;PMS5003;68989;52.032;5.152;2024-03-23T03:10:16;11;11;
79537;PMS5003;68989;52.032;5.152;2024-03-23T03:12:43;11;10;
79537;PMS5003;68989;52.032;5.152;2024-03-23T03:15:10;10;9;
79537;PMS5003;68989;52.032;5.152;2024-03-23T03:17:38;11;10;
79537;PMS5003;68989;52.032;5.152;2024-03-23T03:20:06;11;10;
79537;PMS5003;68989;52.032;5.152;2024-03-23T03:22:34;11;9;
79537;PMS5003;68989;52.032;5.152;2024-03-23T03:25:01;10;9;
79537;PMS5003;68989;52.032;5.152;2024-03-23T03:27:28;10;10;
79537;PMS5003;68989;52.032;5.152;2024-03-23T03:29:55;8;8;
79537;PMS5003;68989;52.032;5.152;2024-03-23T03:32:22;11;11;
79537;PMS5003;68989;52.032;5.152;2024-03-23T03:34:49;8;8;
79537;PMS5003;68989;52.032;5.152;2024-03-23T03:37:16;9;8;
79537;PMS5003;68989;52.032;5.152;2024-03-23T03:39:43;9;7;
79537;PMS5003;68989;52.032;5.152;2024-03-23T03:42:10;9;8;
79537;PMS5003;68989;52.032;5.152;2024-03-23T03:44:38;6;6;
79537;PMS5003;68989;52.032;5.152;2024-03-23T03:47:05;9;7;
79537;PMS5003;68989;52.032;5.152;2024-03-23T03:49:32;6;6;
79537;PMS5003;68989;52.032;5.152;2024-03-23T03:52:00;9;9;
79537;PMS5003;68989;52.032;5.152;2024-03-23T03:54:27;10;8;
79537;PMS5003;68989;52.032;5.152;2024-03-23T03:56:55;10;8;
79537;PMS5003;68989;52.032;5.152;2024-03-23T03:59:22;8;6;
79537;PMS5003;68989;52.032;5.152;2024-03-23T04:01:49;6;6;
79537;PMS5003;68989;52.032;5.152;2024-03-23T04:04:16;8;6;
79537;PMS5003;68989;52.032;5.152;2024-03-23T04:06:43;7;7;
79537;PMS5003;68989;52.032;5.152;2024-03-23T04:09:10;9;7;
79537;PMS5003;68989;52.032;5.152;2024-03-23T04:11:37;9;8;
79537;PMS5003;68989;52.032;5.152;2024-03-23T04:14:05;6;6;
79537;PMS5003;68989;52.032;5.152;2024-03-23T04:16:33;7;7;
79537;PMS5003;68989;52.032;5.152;2024-03-23T04:19:01;8;6;
79537;PMS5003;68989;52.032;5.152;2024-03-23T04:21:29;8;8;
79537;PMS5003;68989;52.032;5.152;2024-03-23T04:23:56;4;4;
79537;PMS5003;68989;52.032;5.152;2024-03-23T04:26:23;6;6;
79537;PMS5003;68989;52.032;5.152;2024-03-23T04:28:50;8;8;
79537;PMS5003;68989;52.032;5.152;2024-03-23T04:31:17;7;5;
79537;PMS5003;68989;52.032;5.152;2024-03-23T04:33:44;4;4;
79537;PMS5003;68989;52.032;5.152;2024-03-23T04:36:11;6;6;
79537;PMS5003;68989;52.032;5.152;2024-03-23T04:38:38;6;6;
79537;PMS5003;68989;52.032;5.152;2024-03-23T04:41:05;5;5;
79537;PMS5003;68989;52.032;5.152;2024-03-23T04:43:32;6;5;
79537;PMS5003;68989;52.032;5.152;2024-03-23T04:46:00;6;5;
79537;PMS5003;68989;52.032;5.152;2024-03-23T04:48:27;6;6;
79537;PMS5003;68989;52.032;5.152;2024-03-23T04:50:55;7;7;
79537;PMS5003;68989;52.032;5.152;2024-03-23T04:53:22;7;4;
79537;PMS5003;68989;52.032;5.152;2024-03-23T04:55:50;6;6;
79537;PMS5003;68989;52.032;5.152;2024-03-23T04:58:17;8;6;
79537;PMS5003;68989;52.032;5.152;2024-03-23T05:00:44;4;3;
79537;PMS5003;68989;52.032;5.152;2024-03-23T05:03:10;7;7;
79537;PMS5003;68989;52.032;5.152;2024-03-23T05:05:38;9;5;
79537;PMS5003;68989;52.032;5.152;2024-03-23T05:08:06;3;3;
79537;PMS5003;68989;52.032;5.152;2024-03-23T05:10:33;5;3;
79537;PMS5003;68989;52.032;5.152;2024-03-23T05:13:00;4;4;
79537;PMS5003;68989;52.032;5.152;2024-03-23T05:15:27;6;5;
79537;PMS5003;68989;52.032;5.152;2024-03-23T05:17:54;2;2;
79537;PMS5003;68989;52.032;5.152;2024-03-23T05:20:22;4;4;
79537;PMS5003;68989;52.032;5.152;2024-03-23T05:22:49;3;3;
79537;PMS5003;68989;52.032;5.152;2024-03-23T05:25:16;5;4;
79537;PMS5003;68989;52.032;5.152;2024-03-23T05:27:44;5;5;
79537;PMS5003;68989;52.032;5.152;2024-03-23T05:30:11;5;4;
79537;PMS5003;68989;52.032;5.152;2024-03-23T05:32:39;4;4;
79537;PMS5003;68989;52.032;5.152;2024-03-23T05:35:06;2;2;
79537;PMS5003;68989;52.032;5.152;2024-03-23T05:37:34;6;4;
79537;PMS5003;68989;52.032;5.152;2024-03-23T05:40:01;5;3;
79537;PMS5003;68989;52.032;5.152;2024-03-23T05:42:28;4;4;
79537;PMS5003;68989;52.032;5.152;2024-03-23T05:44:56;3;3;
79537;PMS5003;68989;52.032;5.152;2024-03-23T05:47:23;5;3;
79537;PMS5003;68989;52.032;5.152;2024-03-23T05:49:50;3;3;
79537;PMS5003;68989;52.032;5.152;2024-03-23T05:52:17;4;3;
79537;PMS5003;68989;52.032;5.152;2024-03-23T05:54:44;6;3;
79537;PMS5003;68989;52.032;5.152;2024-03-23T05:57:11;3;3;
79537;PMS5003;68989;52.032;5.152;2024-03-23T05:59:39;4;4;
79537;PMS5003;68989;52.032;5.152;2024-03-23T06:02:06;7;5;
79537;PMS5003;68989;52.032;5.152;2024-03-23T06:04:33;5;3;
79537;PMS5003;68989;52.032;5.152;2024-03-23T06:07:00;2;2;
79537;PMS5003;68989;52.032;5.152;2024-03-23T06:09:27;2;2;
79537;PMS5003;68989;52.032;5.152;2024-03-23T06:11:53;4;3;
79537;PMS5003;68989;52.032;5.152;2024-03-23T06:14:20;5;4;
79537;PMS5003;68989;52.032;5.152;2024-03-23T06:16:47;2;2;
79537;PMS5003;68989;52.032;5.152;2024-03-23T06:19:14;3;3;
79537;PMS5003;68989;52.032;5.152;2024-03-23T06:21:43;6;4;
79537;PMS5003;68989;52.032;5.152;2024-03-23T06:24:10;3;3;
79537;PMS5003;68989;52.032;5.152;2024-03-23T06:26:37;6;3;
79537;PMS5003;68989;52.032;5.152;2024-03-23T06:29:05;3;3;
79537;PMS5003;68989;52.032;5.152;2024-03-23T06:31:32;7;6;
79537;PMS5003;68989;52.032;5.152;2024-03-23T06:33:59;2;2;
79537;PMS5003;68989;52.032;5.152;2024-03-23T06:36:25;3;3;
79537;PMS5003;68989;52.032;5.152;2024-03-23T06:38:52;5;5;
79537;PMS5003;68989;52.032;5.152;2024-03-23T06:41:19;4;3;
79537;PMS5003;68989;52.032;5.152;2024-03-23T06:43:46;5;5;
79537;PMS5003;68989;52.032;5.152;2024-03-23T06:46:13;4;4;
79537;PMS5003;68989;52.032;5.152;2024-03-23T06:48:40;4;4;
79537;PMS5003;68989;52.032;5.152;2024-03-23T06:51:07;5;5;
79537;PMS5003;68989;52.032;5.152;2024-03-23T06:53:34;7;5;
79537;PMS5003;68989;52.032;5.152;2024-03-23T06:56:00;5;5;
79537;PMS5003;68989;52.032;5.152;2024-03-23T06:58:27;4;4;
79537;PMS5003;68989;52.032;5.152;2024-03-23T07:00:54;3;3;
79537;PMS5003;68989;52.032;5.152;2024-03-23T07:03:21;5;5;
79537;PMS5003;68989;52.032;5.152;2024-03-23T07:05:47;5;5;
79537;PMS5003;68989;52.032;5.152;2024-03-23T07:08:14;7;5;
79537;PMS5003;68989;52.032;5.152;2024-03-23T07:10:41;5;5;
79537;PMS5003;68989;52.032;5.152;2024-03-23T07:13:08;5;5;
79537;PMS5003;68989;52.032;5.152;2024-03-23T07:15:35;8;6;
79537;PMS5003;68989;52.032;5.152;2024-03-23T07:18:02;7;6;
79537;PMS5003;68989;52.032;5.152;2024-03-23T07:20:29;7;7;
79537;PMS5003;68989;52.032;5.152;2024-03-23T07:22:56;6;5;
79537;PMS5003;68989;52.032;5.152;2024-03-23T07:25:23;6;6;
79537;PMS5003;68989;52.032;5.152;2024-03-23T07:27:50;6;6;
79537;PMS5003;68989;52.032;5.152;2024-03-23T07:30:16;9;7;
79537;PMS5003;68989;52.032;5.152;2024-03-23T07:32:44;5;5;
79537;PMS5003;68989;52.032;5.152;2024-03-23T07:35:11;8;8;
79537;PMS5003;68989;52.032;5.152;2024-03-23T07:37:40;8;6;
79537;PMS5003;68989;52.032;5.152;2024-03-23T07:40:09;6;6;
79537;PMS5003;68989;52.032;5.152;2024-03-23T07:42:36;7;6;
79537;PMS5003;68989;52.032;5.152;2024-03-23T07:45:03;6;6;
79537;PMS5003;68989;52.032;5.152;2024-03-23T07:47:31;7;4;
79537;PMS5003;68989;52.032;5.152;2024-03-23T07:49:57;5;5;
79537;PMS5003;68989;52.032;5.152;2024-03-23T07:52:27;8;6;
79537;PMS5003;68989;52.032;5.152;2024-03-23T07:54:54;6;6;
79537;PMS5003;68989;52.032;5.152;2024-03-23T07:57:21;6;5;
79537;PMS5003;68989;52.032;5.152;2024-03-23T07:59:48;9;6;
79537;PMS5003;68989;52.032;5.152;2024-03-23T08:02:15;6;5;
79537;PMS5003;68989;52.032;5.152;2024-03-23T08:04:42;5;5;
79537;PMS5003;68989;52.032;5.152;2024-03-23T08:07:08;5;5;
79537;PMS5003;68989;52.032;5.152;2024-03-23T08:09:35;3;3;
79537;PMS5003;68989;52.032;5.152;2024-03-23T08:12:02;6;4;
79537;PMS5003;68989;52.032;5.152;2024-03-23T08:14:30;5;5;
79537;PMS5003;68989;52.032;5.152;2024-03-23T08:16:57;3;3;
79537;PMS5003;68989;52.032;5.152;2024-03-23T08:19:24;5;5;
79537;PMS5003;68989;52.032;5.152;2024-03-23T08:21:51;6;5;
79537;PMS5003;68989;52.032;5.152;2024-03-23T08:24:18;6;4;
79537;PMS5003;68989;52.032;5.152;2024-03-23T08:26:44;3;3;
79537;PMS5003;68989;52.032;5.152;2024-03-23T08:29:11;4;4;
79537;PMS5003;68989;52.032;5.152;2024-03-23T08:31:39;6;4;
79537;PMS5003;68989;52.032;5.152;2024-03-23T08:34:06;7;5;
79537;PMS5003;68989;52.032;5.152;2024-03-23T08:36:33;5;5;
79537;PMS5003;68989;52.032;5.152;2024-03-23T08:39:00;5;5;
79537;PMS5003;68989;52.032;5.152;2024-03-23T08:41:27;4;4;
79537;PMS5003;68989;52.032;5.152;2024-03-23T08:43:54;4;4;
79537;PMS5003;68989;52.032;5.152;2024-03-23T08:46:22;4;4;
79537;PMS5003;68989;52.032;5.152;2024-03-23T08:48:49;5;5;
79537;PMS5003;68989;52.032;5.152;2024-03-23T08:51:16;5;5;
79537;PMS5003;68989;52.032;5.152;2024-03-23T08:53:44;5;4;
79537;PMS5003;68989;52.032;5.152;2024-03-23T08:56:11;5;3;
79537;PMS5003;68989;52.032;5.152;2024-03-23T08:58:39;5;4;
79537;PMS5003;68989;52.032;5.152;2024-03-23T09:01:06;5;5;
79537;PMS5003;68989;52.032;5.152;2024-03-23T09:03:35;7;4;
79537;PMS5003;68989;52.032;5.152;2024-03-23T09:06:06;4;3;
79537;PMS5003;68989;52.032;5.152;2024-03-23T09:08:34;5;3;
79537;PMS5003;68989;52.032;5.152;2024-03-23T09:11:03;3;3;
79537;PMS5003;68989;52.032;5.152;2024-03-23T09:13:30;3;2;
79537;PMS5003;68989;52.032;5.152;2024-03-23T09:15:57;6;3;
79537;PMS5003;68989;52.032;5.152;2024-03-23T09:18:24;3;3;
79537;PMS5003;68989;52.032;5.152;2024-03-23T09:20:50;4;4;
79537;PMS5003;68989;52.032;5.152;2024-03-23T09:23:17;4;4;
79537;PMS5003;68989;52.032;5.152;2024-03-23T09:25:45;9;7;
79537;PMS5003;68989;52.032;5.152;2024-03-23T09:28:12;3;3;
79537;PMS5003;68989;52.032;5.152;2024-03-23T09:30:39;5;5;
79537;PMS5003;68989;52.032;5.152;2024-03-23T09:33:06;4;4;
79537;PMS5003;68989;52.032;5.152;2024-03-23T09:35:36;4;4;
79537;PMS5003;68989;52.032;5.152;2024-03-23T09:38:04;6;6;
79537;PMS5003;68989;52.032;5.152;2024-03-23T09:40:31;4;4;
79537;PMS5003;68989;52.032;5.152;2024-03-23T09:42:58;7;6;
79537;PMS5003;68989;52.032;5.152;2024-03-23T09:45:26;4;4;
79537;PMS5003;68989;52.032;5.152;2024-03-23T09:47:55;4;4;
79537;PMS5003;68989;52.032;5.152;2024-03-23T09:50:23;5;4;
79537;PMS5003;68989;52.032;5.152;2024-03-23T09:52:50;5;3;
79537;PMS5003;68989;52.032;5.152;2024-03-23T09:55:18;5;4;
79537;PMS5003;68989;52.032;5.152;2024-03-23T09:57:44;3;3;
79537;PMS5003;68989;52.032;5.152;2024-03-23T10:00:12;7;5;
79537;PMS5003;68989;52.032;5.152;2024-03-23T10:02:40;4;4;
79537;PMS5003;68989;52.032;5.152;2024-03-23T10:05:19;4;3;
79537;PMS5003;68989;52.032;5.152;2024-03-23T10:07:47;3;3;
79537;PMS5003;68989;52.032;5.152;2024-03-23T10:10:15;6;4;
79537;PMS5003;68989;52.032;5.152;2024-03-23T10:12:44;3;3;
79537;PMS5003;68989;52.032;5.152;2024-03-23T10:15:15;5;5;
79537;PMS5003;68989;52.032;5.152;2024-03-23T10:17:45;3;3;
79537;PMS5003;68989;52.032;5.152;2024-03-23T10:20:13;5;4;
79537;PMS5003;68989;52.032;5.152;2024-03-23T10:22:46;3;3;
79537;PMS5003;68989;52.032;5.152;2024-03-23T10:25:15;4;4;
79537;PMS5003;68989;52.032;5.152;2024-03-23T10:27:42;6;4;
79537;PMS5003;68989;52.032;5.152;2024-03-23T10:30:10;4;3;
79537;PMS5003;68989;52.032;5.152;2024-03-23T10:32:40;3;3;
79537;PMS5003;68989;52.032;5.152;2024-03-23T10:35:15;5;5;
79537;PMS5003;68989;52.032;5.152;2024-03-23T10:37:42;3;3;
79537;PMS5003;68989;52.032;5.152;2024-03-23T10:40:10;2;2;
79537;PMS5003;68989;52.032;5.152;2024-03-23T10:42:39;4;1;
79537;PMS5003;68989;52.032;5.152;2024-03-23T10:45:07;2;2;
79537;PMS5003;68989;52.032;5.152;2024-03-23T10:47:36;2;2;
79537;PMS5003;68989;52.032;5.152;2024-03-23T10:50:04;3;3;
79537;PMS5003;68989;52.032;5.152;2024-03-23T10:52:32;3;3;
79537;PMS5003;68989;52.032;5.152;2024-03-23T10:54:59;2;1;
79537;PMS5003;68989;52.032;5.152;2024-03-23T10:57:30;2;2;
79537;PMS5003;68989;52.032;5.152;2024-03-23T11:00:02;1;1;
79537;PMS5003;68989;52.032;5.152;2024-03-23T11:02:30;3;3;
79537;PMS5003;68989;52.032;5.152;2024-03-23T11:04:57;3;3;
79537;PMS5003;68989;52.032;5.152;2024-03-23T11:07:32;3;3;
79537;PMS5003;68989;52.032;5.152;2024-03-23T11:10:00;6;4;
79537;PMS5003;68989;52.032;5.152;2024-03-23T11:12:28;6;4;
79537;PMS5003;68989;52.032;5.152;2024-03-23T11:14:57;4;4;
79537;PMS5003;68989;52.032;5.152;2024-03-23T11:17:28;2;2;
79537;PMS5003;68989;52.032;5.152;2024-03-23T11:19:56;5;4;
79537;PMS5003;68989;52.032;5.152;2024-03-23T11:22:40;4;4;
79537;PMS5003;68989;52.032;5.152;2024-03-23T11:25:12;3;3;
79537;PMS5003;68989;52.032;5.152;2024-03-23T11:27:40;3;3;
79537;PMS5003;68989;52.032;5.152;2024-03-23T11:30:10;3;3;
79537;PMS5003;68989;52.032;5.152;2024-03-23T11:32:39;2;2;
79537;PMS5003;68989;52.032;5.152;2024-03-23T11:35:06;5;2;
79537;PMS5003;68989;52.032;5.152;2024-03-23T11:37:34;2;2;
79537;PMS5003;68989;52.032;5.152;2024-03-23T11:40:01;2;2;
79537;PMS5003;68989;52.032;5.152;2024-03-23T11:42:42;3;2;
79537;PMS5003;68989;52.032;5.152;2024-03-23T11:45:09;5;3;
79537;PMS5003;68989;52.032;5.152;2024-03-23T11:47:37;3;3;
79537;PMS5003;68989;52.032;5.152;2024-03-23T11:50:05;3;2;
79537;PMS5003;68989;52.032;5.152;2024-03-23T11:52:33;4;4;
79537;PMS5003;68989;52.032;5.152;2024-03-23T11:55:03;3;3;
79537;PMS5003;68989;52.032;5.152;2024-03-23T11:57:31;4;4;
79537;PMS5003;68989;52.032;5.152;2024-03-23T11:59:58;5;4;
79537;PMS5003;68989;52.032;5.152;2024-03-23T12:02:25;4;4;
79537;PMS5003;68989;52.032;5.152;2024-03-23T12:04:52;5;5;
79537;PMS5003;68989;52.032;5.152;2024-03-23T12:07:19;5;4;
79537;PMS5003;68989;52.032;5.152;2024-03-23T12:09:48;6;5;
79537;PMS5003;68989;52.032;5.152;2024-03-23T12:12:29;3;3;
79537;PMS5003;68989;52.032;5.152;2024-03-23T12:15:01;6;4;
79537;PMS5003;68989;52.032;5.152;2024-03-23T12:17:29;3;3;
79537;PMS5003;68989;52.032;5.152;2024-03-23T12:19:56;5;5;
79537;PMS5003;68989;52.032;5.152;2024-03-23T12:22:23;4;4;
79537;PMS5003;68989;52.032;5.152;2024-03-23T12:24:50;5;4;
79537;PMS5003;68989;52.032;5.152;2024-03-23T12:27:17;4;4;
79537;PMS5003;68989;52.032;5.152;2024-03-23T12:29:44;2;2;
79537;PMS5003;68989;52.032;5.152;2024-03-23T12:32:11;4;3;
79537;PMS5003;68989;52.032;5.152;2024-03-23T12:34:39;2;2;
79537;PMS5003;68989;52.032;5.152;2024-03-23T12:37:06;2;2;
79537;PMS5003;68989;52.032;5.152;2024-03-23T12:39:34;4;3;
79537;PMS5003;68989;52.032;5.152;2024-03-23T12:42:01;4;2;
79537;PMS5003;68989;52.032;5.152;2024-03-23T12:44:28;3;3;
79537;PMS5003;68989;52.032;5.152;2024-03-23T12:46:55;3;2;
79537;PMS5003;68989;52.032;5.152;2024-03-23T12:49:22;6;2;
79537;PMS5003;68989;52.032;5.152;2024-03-23T12:51:53;2;2;
79537;PMS5003;68989;52.032;5.152;2024-03-23T12:54:21;4;2;
79537;PMS5003;68989;52.032;5.152;2024-03-23T12:56:49;1;1;
79537;PMS5003;68989;52.032;5.152;2024-03-23T12:59:16;3;3;
79537;PMS5003;68989;52.032;5.152;2024-03-23T13:01:43;2;2;
79537;PMS5003;68989;52.032;5.152;2024-03-23T13:04:10;3;3;
79537;PMS5003;68989;52.032;5.152;2024-03-23T13:06:37;2;2;
79537;PMS5003;68989;52.032;5.152;2024-03-23T13:09:04;3;1;
79537;PMS5003;68989;52.032;5.152;2024-03-23T13:11:31;1;1;
79537;PMS5003;68989;52.032;5.152;2024-03-23T13:13:58;2;2;
79537;PMS5003;68989;52.032;5.152;2024-03-23T13:16:25;1;1;
79537;PMS5003;68989;52.032;5.152;2024-03-23T13:18:52;3;1;
79537;PMS5003;68989;52.032;5.152;2024-03-23T13:21:18;1;1;
79537;PMS5003;68989;52.032;5.152;2024-03-23T13:23:46;1;1;
79537;PMS5003;68989;52.032;5.152;2024-03-23T13:26:14;2;2;
79537;PMS5003;68989;52.032;5.152;2024-03-23T13:28:41;2;2;
79537;PMS5003;68989;52.032;5.152;2024-03-23T13:31:07;3;2;
79537;PMS5003;68989;52.032;5.152;2024-03-23T13:33:34;2;2;
79537;PMS5003;68989;52.032;5.152;2024-03-23T13:36:02;5;2;
79537;PMS5003;68989;52.032;5.152;2024-03-23T13:38:30;3;1;
79537;PMS5003;68989;52.032;5.152;2024-03-23T13:40:58;2;2;
79537;PMS5003;68989;52.032;5.152;2024-03-23T13:43:26;2;2;
79537;PMS5003;68989;52.032;5.152;2024-03-23T13:45:55;1;1;
79537;PMS5003;68989;52.032;5.152;2024-03-23T13:48:23;2;1;
79537;PMS5003;68989;52.032;5.152;2024-03-23T13:50:59;1;1;
79537;PMS5003;68989;52.032;5.152;2024-03-23T13:53:26;1;1;
79537;PMS5003;68989;52.032;5.152;2024-03-23T13:55:53;2;2;
79537;PMS5003;68989;52.032;5.152;2024-03-23T13:58:21;2;1;
79537;PMS5003;68989;52.032;5.152;2024-03-23T14:00:49;3;3;
79537;PMS5003;68989;52.032;5.152;2024-03-23T14:03:16;3;3;
79537;PMS5003;68989;52.032;5.152;2024-03-23T14:05:44;3;3;
79537;PMS5003;68989;52.032;5.152;2024-03-23T14:08:11;3;3;
79537;PMS5003;68989;52.032;5.152;2024-03-23T14:10:40;4;4;
79537;PMS5003;68989;52.032;5.152;2024-03-23T14:13:08;4;3;
79537;PMS5003;68989;52.032;5.152;2024-03-23T14:15:36;3;3;
79537;PMS5003;68989;52.032;5.152;2024-03-23T14:18:03;4;4;
79537;PMS5003;68989;52.032;5.152;2024-03-23T14:20:30;4;4;
79537;PMS5003;68989;52.032;5.152;2024-03-23T14:22:58;3;3;
79537;PMS5003;68989;52.032;5.152;2024-03-23T14:25:24;5;4;
79537;PMS5003;68989;52.032;5.152;2024-03-23T14:27:51;2;2;
79537;PMS5003;68989;52.032;5.152;2024-03-23T14:30:18;5;5;
79537;PMS5003;68989;52.032;5.152;2024-03-23T14:32:45;2;2;
79537;PMS5003;68989;52.032;5.152;2024-03-23T14:35:12;1;1;
79537;PMS5003;68989;52.032;5.152;2024-03-23T14:37:39;2;1;
79537;PMS5003;68989;52.032;5.152;2024-03-23T14:40:06;4;4;
79537;PMS5003;68989;52.032;5.152;2024-03-23T14:42:35;2;1;
79537;PMS5003;68989;52.032;5.152;2024-03-23T14:45:01;2;2;
79537;PMS5003;68989;52.032;5.152;2024-03-23T14:47:28;2;2;
79537;PMS5003;68989;52.032;5.152;2024-03-23T14:49:55;2;2;
79537;PMS5003;68989;52.032;5.152;2024-03-23T14:52:22;1;1;
79537;PMS5003;68989;52.032;5.152;2024-03-23T14:54:49;0;0;
79537;PMS5003;68989;52.032;5.152;2024-03-23T14:57:15;1;1;
79537;PMS5003;68989;52.032;5.152;2024-03-23T14:59:42;1;1;
79537;PMS5003;68989;52.032;5.152;2024-03-23T15:02:09;3;1;
79537;PMS5003;68989;52.032;5.152;2024-03-23T15:04:36;3;3;
79537;PMS5003;68989;52.032;5.152;2024-03-23T15:07:04;0;0;
79537;PMS5003;68989;52.032;5.152;2024-03-23T15:09:30;4;3;
79537;PMS5003;68989;52.032;5.152;2024-03-23T15:11:57;1;1;
79537;PMS5003;68989;52.032;5.152;2024-03-23T15:14:24;4;2;
79537;PMS5003;68989;52.032;5.152;2024-03-23T15:16:52;3;3;
79537;PMS5003;68989;52.032;5.152;2024-03-23T15:19:18;3;1;
79537;PMS5003;68989;52.032;5.152;2024-03-23T15:21:45;2;2;
79537;PMS5003;68989;52.032;5.152;2024-03-23T15:24:12;2;2;
79537;PMS5003;68989;52.032;5.152;2024-03-23T15:26:39;2;2;
79537;PMS5003;68989;52.032;5.152;2024-03-23T15:29:06;2;2;
79537;PMS5003;68989;52.032;5.152;2024-03-23T15:31:33;3;2;
79537;PMS5003;68989;52.032;5.152;2024-03-23T15:34:00;2;2;
79537;PMS5003;68989;52.032;5.152;2024-03-23T15:36:28;1;1;
79537;PMS5003;68989;52.032;5.152;2024-03-23T15:38:54;3;3;
79537;PMS5003;68989;52.032;5.152;2024-03-23T15:41:21;3;2;
79537;PMS5003;68989;52.032;5.152;2024-03-23T15:43:48;4;1;
79537;PMS5003;68989;52.032;5.152;2024-03-23T15:46:15;3;3;
79537;PMS5003;68989;52.032;5.152;2024-03-23T15:48:42;4;4;
79537;PMS5003;68989;52.032;5.152;2024-03-23T15:51:09;6;6;
79537;PMS5003;68989;52.032;5.152;2024-03-23T15:53:35;9;7;
79537;PMS5003;68989;52.032;5.152;2024-03-23T15:56:03;6;6;
79537;PMS5003;68989;52.032;5.152;2024-03-23T15:58:31;4;4;
79537;PMS5003;68989;52.032;5.152;2024-03-23T16:00:59;5;4;
79537;PMS5003;68989;52.032;5.152;2024-03-23T16:03:27;7;4;
79537;PMS5003;68989;52.032;5.152;2024-03-23T16:05:55;8;6;
79537;PMS5003;68989;52.032;5.152;2024-03-23T16:08:23;2;2;
79537;PMS5003;68989;52.032;5.152;2024-03-23T16:10:51;3;3;
79537;PMS5003;68989;52.032;5.152;2024-03-23T16:13:20;3;3;
79537;PMS5003;68989;52.032;5.152;2024-03-23T16:15:54;3;3;
79537;PMS5003;68989;52.032;5.152;2024-03-23T16:18:22;2;2;
79537;PMS5003;68989;52.032;5.152;2024-03-23T16:20:53;5;5;
79537;PMS5003;68989;52.032;5.152;2024-03-23T16:23:21;6;4;
79537;PMS5003;68989;52.032;5.152;2024-03-23T16:25:49;7;4;
79537;PMS5003;68989;52.032;5.152;2024-03-23T16:28:17;9;5;
79537;PMS5003;68989;52.032;5.152;2024-03-23T16:30:44;4;2;
79537;PMS5003;68989;52.032;5.152;2024-03-23T16:33:11;7;6;
79537;PMS5003;68989;52.032;5.152;2024-03-23T16:35:37;5;5;
79537;PMS5003;68989;52.032;5.152;2024-03-23T16:38:06;7;5;
79537;PMS5003;68989;52.032;5.152;2024-03-23T16:40:33;3;3;
79537;PMS5003;68989;52.032;5.152;2024-03-23T16:43:00;4;4;
79537;PMS5003;68989;52.032;5.152;2024-03-23T16:45:26;4;4;
79537;PMS5003;68989;52.032;5.152;2024-03-23T16:47:53;4;3;
79537;PMS5003;68989;52.032;5.152;2024-03-23T16:50:20;3;3;
79537;PMS5003;68989;52.032;5.152;2024-03-23T16:52:47;4;4;
79537;PMS5003;68989;52.032;5.152;2024-03-23T16:55:15;4;4;
79537;PMS5003;68989;52.032;5.152;2024-03-23T16:57:41;3;3;
79537;PMS5003;68989;52.032;5.152;2024-03-23T17:00:09;7;4;
79537;PMS5003;68989;52.032;5.152;2024-03-23T17:02:37;5;4;
79537;PMS5003;68989;52.032;5.152;2024-03-23T17:05:04;4;4;
79537;PMS5003;68989;52.032;5.152;2024-03-23T17:07:31;4;2;
79537;PMS5003;68989;52.032;5.152;2024-03-23T17:09:58;3;3;
79537;PMS5003;68989;52.032;5.152;2024-03-23T17:12:25;4;3;
79537;PMS5003;68989;52.032;5.152;2024-03-23T17:14:52;3;3;
79537;PMS5003;68989;52.032;5.152;2024-03-23T17:17:19;5;4;
79537;PMS5003;68989;52.032;5.152;2024-03-23T17:19:46;4;3;
79537;PMS5003;68989;52.032;5.152;2024-03-23T17:22:13;3;3;
79537;PMS5003;68989;52.032;5.152;2024-03-23T17:24:40;4;4;
79537;PMS5003;68989;52.032;5.152;2024-03-23T17:27:07;4;4;
79537;PMS5003;68989;52.032;5.152;2024-03-23T17:29:34;5;3;
79537;PMS5003;68989;52.032;5.152;2024-03-23T17:32:01;3;3;
79537;PMS5003;68989;52.032;5.152;2024-03-23T17:34:28;3;3;
79537;PMS5003;68989;52.032;5.152;2024-03-23T17:36:55;4;2;
79537;PMS5003;68989;52.032;5.152;2024-03-23T17:39:22;4;3;
79537;PMS5003;68989;52.032;5.152;2024-03-23T17:41:49;3;3;